This is the latest recevied weather packets stored in our database for station/object KC3ELT-10. If no packets are shown the sender has not sent any weather packets the latest 10 day(s).
| Time | Temp. | Humidity | Pressure | Rain* | Wind** | Luminosity | Snow |
|---|---|---|---|---|---|---|---|
| 1777336378 | 14.44° C | 55% | 1017.8 hPa | 0 mm | 0.89 m/s, 162° | - | - |
| 1777336078 | 14.44° C | 55% | 1018 hPa | 0 mm | 1.34 m/s, 136° | - | - |
| 1777335778 | 14.44° C | 54% | 1018 hPa | 0 mm | 1.34 m/s, 159° | - | - |
| 1777335479 | 14.44° C | 53% | 1018 hPa | 0 mm | 0.45 m/s, 158° | - | - |
| 1777335178 | 15° C | 52% | 1017.8 hPa | 0 mm | 0.45 m/s, 145° | - | - |
| 1777334878 | 15° C | 52% | 1017.8 hPa | 0 mm | 0.89 m/s, 167° | - | - |
| 1777334578 | 15° C | 51% | 1017.8 hPa | 0 mm | 0 m/s | - | - |
| 1777334278 | 15° C | 52% | 1017.8 hPa | 0 mm | 0 m/s | - | - |
| 1777333978 | 15.56° C | 51% | 1017.8 hPa | 0 mm | 0 m/s | - | - |
| 1777333678 | 15.56° C | 49% | 1017.8 hPa | 0 mm | 0 m/s | - | - |
| 1777333379 | 16.11° C | 49% | 1017.7 hPa | 0 mm | 0 m/s | - | - |
| 1777333078 | 16.11° C | 45% | 1017.7 hPa | 0 mm | 0 m/s | - | - |
| 1777332779 | 16.67° C | 45% | 1017.7 hPa | 0 mm | 0 m/s | - | - |
| 1777332479 | 16.67° C | 43% | 1017.2 hPa | 0 mm | 0 m/s | - | - |
| 1777332178 | 17.22° C | 45% | 1017.2 hPa | 0 mm | 0 m/s | - | - |
| 1777331878 | 17.22° C | 44% | 1017.2 hPa | 0 mm | 0.45 m/s, 134° | - | - |
| 1777331578 | 17.22° C | 44% | 1017.3 hPa | 0 mm | 0 m/s | - | - |
| 1777331278 | 17.78° C | 43% | 1017.3 hPa | 0 mm | 0.45 m/s, 30° | - | - |
| 1777330978 | 17.78° C | 43% | 1017.3 hPa | 0 mm | 0.89 m/s, 140° | - | - |
| 1777330678 | 17.78° C | 43% | 1017.2 hPa | 0 mm | 0.45 m/s, 221° | - | - |
| 1777330379 | 17.78° C | 44% | 1017.2 hPa | 0 mm | 0.45 m/s, 135° | - | - |
| 1777330078 | 18.33° C | 42% | 1017.2 hPa | 0 mm | 0.45 m/s, 158° | - | - |
| 1777329779 | 18.33° C | 44% | 1017.1 hPa | 0 mm | 0.45 m/s, 128° | - | - |
| 1777329478 | 18.33° C | 44% | 1017.1 hPa | 0 mm | 1.34 m/s, 95° | - | - |
| 1777329178 | 18.33° C | 42% | 1017.1 hPa | 0 mm | 0 m/s | - | - |
* Rain latest hour (hover to see other rain measurements)
** Current wind speed in m/s (hover to see current wind gust speed)